Time;durP1;ratioP1;P1;durP2;ratioP2;P2;SDS_P1;SDS_P2;PMS_P1;PMS_P2;Temp;Humidity;BMP_temperature;BMP_pressure;BME280_temperature;BME280_humidity;BME280_pressure;Samples;Min_cycle;Max_cycle;Signal;HPM_P1;HPM_P2
2024/02/11 00:02:05;;;;;;;7.30;6.53;;;10.00;99.90;;;;;;5057170;28;21038;-79
2024/02/11 00:04:32;;;;;;;10.93;5.93;;;9.90;99.90;;;;;;5056401;28;20454;-81
2024/02/11 00:06:59;;;;;;;7.60;6.13;;;9.90;99.90;;;;;;5055997;28;20933;-80
2024/02/11 00:09:28;;;;;;;9.53;6.80;;;9.80;99.90;;;;;;5056480;28;20463;-81
2024/02/11 00:11:54;;;;;;;7.53;6.63;;;9.80;99.90;;;;;;5056727;28;20497;-81
2024/02/11 00:14:21;;;;;;;10.03;7.33;;;9.70;99.90;;;;;;5058569;28;20448;-81
2024/02/11 00:16:49;;;;;;;7.17;6.47;;;9.70;99.90;;;;;;5054051;28;20458;-82
2024/02/11 00:19:16;;;;;;;9.80;7.10;;;9.60;99.90;;;;;;5058916;28;20911;-83
2024/02/11 00:21:42;;;;;;;8.17;6.53;;;9.60;99.90;;;;;;5058909;28;20531;-82
2024/02/11 00:24:09;;;;;;;8.70;6.63;;;9.60;99.90;;;;;;5057989;28;20451;-82
2024/02/11 00:26:39;;;;;;;7.77;6.43;;;9.50;99.90;;;;;;5056733;28;20500;-83
2024/02/11 00:29:07;;;;;;;8.70;6.57;;;9.50;99.90;;;;;;5058228;28;20463;-84
2024/02/11 00:31:35;;;;;;;8.80;6.70;;;9.40;99.90;;;;;;5057930;28;21033;-83
2024/02/11 00:34:04;;;;;;;7.37;6.00;;;9.40;99.90;;;;;;5058623;28;20452;-82
2024/02/11 00:36:31;;;;;;;8.27;6.43;;;9.40;99.90;;;;;;5055485;28;20481;-82
2024/02/11 00:38:58;;;;;;;8.60;6.50;;;9.40;99.90;;;;;;5069892;28;20823;-81
2024/02/11 00:41:24;;;;;;;7.50;6.20;;;9.40;99.90;;;;;;5068448;28;20488;-81
2024/02/11 00:43:53;;;;;;;9.90;6.27;;;9.40;99.90;;;;;;5069660;28;20536;-82
2024/02/11 00:46:19;;;;;;;8.50;6.57;;;9.40;99.90;;;;;;5055123;28;20495;-83
2024/02/11 00:48:46;;;;;;;8.90;6.67;;;9.40;99.90;;;;;;5056038;28;20463;-81
2024/02/11 00:51:13;;;;;;;8.17;7.37;;;9.50;99.90;;;;;;5056352;28;20551;-81
2024/02/11 00:53:40;;;;;;;10.33;7.27;;;9.50;99.90;;;;;;5055500;28;20458;-81
2024/02/11 00:56:08;;;;;;;7.83;6.70;;;9.50;99.90;;;;;;5055598;28;21019;-81
2024/02/11 00:58:34;;;;;;;9.27;8.30;;;9.50;99.90;;;;;;5056105;28;20467;-82
2024/02/11 01:01:04;;;;;;;8.37;7.57;;;9.50;99.90;;;;;;5056026;28;20484;-81
2024/02/11 01:03:31;;;;;;;9.37;7.50;;;9.50;99.90;;;;;;5056252;28;20552;-83
2024/02/11 01:05:58;;;;;;;8.17;7.37;;;9.50;99.90;;;;;;5053019;28;20522;-83
2024/02/11 01:08:25;;;;;;;8.47;7.47;;;9.60;99.90;;;;;;5056031;28;20542;-81
2024/02/11 01:10:52;;;;;;;8.67;6.90;;;9.60;99.90;;;;;;5056034;28;20486;-82
2024/02/11 01:13:19;;;;;;;7.47;6.57;;;9.60;99.90;;;;;;5056159;28;20487;-82
2024/02/11 01:15:46;;;;;;;10.73;7.87;;;9.60;99.90;;;;;;5061488;28;20455;-81
2024/02/11 01:18:13;;;;;;;8.20;6.53;;;9.70;99.90;;;;;;5070111;28;20456;-82
2024/02/11 01:20:42;;;;;;;10.10;7.23;;;9.70;99.90;;;;;;5069412;28;20515;-82
2024/02/11 01:23:09;;;;;;;8.20;7.37;;;9.70;99.90;;;;;;5070234;28;20483;-83
2024/02/11 01:25:36;;;;;;;10.00;8.33;;;9.80;99.90;;;;;;5068731;28;20543;-80
2024/02/11 01:28:02;;;;;;;9.10;8.30;;;9.80;99.90;;;;;;5070429;28;20468;-80
2024/02/11 01:30:29;;;;;;;8.30;6.93;;;9.80;99.90;;;;;;5064547;28;20570;-81
2024/02/11 01:32:57;;;;;;;7.73;6.33;;;9.80;99.90;;;;;;5058198;28;20537;-83
2024/02/11 01:35:28;;;;;;;7.97;7.17;;;9.80;99.90;;;;;;5057596;28;20971;-82
2024/02/11 01:37:55;;;;;;;8.90;7.50;;;9.80;99.90;;;;;;5056438;28;20517;-83
2024/02/11 01:40:22;;;;;;;15.50;7.80;;;9.90;99.90;;;;;;5057561;28;20497;-83
2024/02/11 01:42:49;;;;;;;9.47;7.03;;;9.90;99.90;;;;;;5057873;28;20456;-82
2024/02/11 01:45:17;;;;;;;7.70;6.90;;;10.00;99.90;;;;;;5056516;28;20688;-81
2024/02/11 01:47:46;;;;;;;8.40;7.13;;;9.90;99.90;;;;;;5057162;28;20465;-83
2024/02/11 01:50:16;;;;;;;8.50;7.03;;;9.90;99.90;;;;;;5058094;28;20476;-82
2024/02/11 01:52:47;;;;;;;8.20;7.00;;;9.90;99.90;;;;;;5058388;28;20468;-83
2024/02/11 01:55:17;;;;;;;7.80;7.00;;;10.00;99.90;;;;;;5057252;28;20455;-80
2024/02/11 01:57:45;;;;;;;9.20;7.80;;;10.00;99.90;;;;;;5058773;28;20462;-83
2024/02/11 02:00:12;;;;;;;8.00;6.70;;;10.00;99.90;;;;;;5059020;28;20473;-83
2024/02/11 02:02:41;;;;;;;9.30;6.90;;;10.00;99.90;;;;;;5058188;28;20503;-81
2024/02/11 02:05:08;;;;;;;7.40;6.70;;;10.00;99.90;;;;;;5052837;28;20959;-83
2024/02/11 02:07:35;;;;;;;7.43;6.60;;;10.00;99.90;;;;;;5061582;28;20459;-82
2024/02/11 02:10:04;;;;;;;8.50;6.90;;;10.00;99.90;;;;;;5062098;28;20566;-81
2024/02/11 02:12:32;;;;;;;7.47;6.77;;;10.00;99.90;;;;;;5059019;28;20484;-82
2024/02/11 02:14:59;;;;;;;8.77;7.57;;;10.00;99.90;;;;;;5060533;28;20498;-79
2024/02/11 02:17:26;;;;;;;7.80;7.07;;;10.00;99.90;;;;;;5061630;28;20510;-81
2024/02/11 02:19:53;;;;;;;9.77;6.90;;;10.00;99.90;;;;;;5061485;28;20555;-82
2024/02/11 02:22:21;;;;;;;8.40;7.27;;;9.90;99.90;;;;;;5059684;28;20481;-82
2024/02/11 02:24:49;;;;;;;8.27;7.47;;;9.90;99.90;;;;;;5061191;28;20510;-82
2024/02/11 02:27:16;;;;;;;10.73;6.30;;;9.90;99.90;;;;;;5060517;28;20495;-81
2024/02/11 02:29:44;;;;;;;8.30;7.50;;;9.90;99.90;;;;;;5061482;28;21099;-81
2024/02/11 02:32:11;;;;;;;8.73;7.83;;;9.90;99.90;;;;;;5062283;28;20486;-82
2024/02/11 02:34:40;;;;;;;8.33;7.53;;;9.90;99.90;;;;;;5061857;28;20891;-81
2024/02/11 02:37:07;;;;;;;7.47;6.77;;;9.90;99.90;;;;;;5053232;28;20451;-82
2024/02/11 02:39:36;;;;;;;9.30;7.97;;;9.90;99.90;;;;;;5062051;28;20483;-82
2024/02/11 02:42:03;;;;;;;7.57;6.60;;;9.90;99.90;;;;;;5062637;28;20448;-83
2024/02/11 02:44:31;;;;;;;8.70;6.60;;;9.80;99.90;;;;;;5061992;28;20510;-81
2024/02/11 02:46:56;;;;;;;9.60;7.63;;;9.80;99.90;;;;;;5059946;28;20497;-83
2024/02/11 02:49:23;;;;;;;8.33;7.47;;;9.70;99.90;;;;;;5063180;28;20459;-84
2024/02/11 02:51:50;;;;;;;9.00;7.60;;;9.70;99.90;;;;;;5061783;28;20204;-81
2024/02/11 02:54:17;;;;;;;8.53;7.70;;;9.70;99.90;;;;;;5062086;28;20470;-81
2024/02/11 02:56:45;;;;;;;7.67;6.73;;;9.60;99.90;;;;;;5060594;28;20479;-82
2024/02/11 02:59:12;;;;;;;7.40;6.70;;;9.60;99.90;;;;;;5061661;28;20905;-81
2024/02/11 03:01:39;;;;;;;9.20;7.00;;;9.60;99.90;;;;;;5060872;28;20483;-81
2024/02/11 03:04:06;;;;;;;8.20;6.93;;;9.50;99.90;;;;;;5061540;28;20463;-83
2024/02/11 03:06:34;;;;;;;7.63;6.93;;;9.50;99.90;;;;;;5060295;28;20490;-81
2024/02/11 03:09:01;;;;;;;9.37;7.23;;;9.60;99.90;;;;;;5059329;28;20466;-81
2024/02/11 03:11:27;;;;;;;8.10;6.73;;;9.60;99.90;;;;;;5060751;28;20472;-83
2024/02/11 03:13:56;;;;;;;10.27;7.90;;;9.60;99.90;;;;;;5060285;28;20477;-83
2024/02/11 03:16:23;;;;;;;8.20;7.33;;;9.60;99.90;;;;;;5059110;28;20534;-81
2024/02/11 03:18:50;;;;;;;8.90;8.00;;;9.60;99.90;;;;;;5060533;28;20960;-82
2024/02/11 03:21:17;;;;;;;9.10;7.03;;;9.60;99.90;;;;;;5060675;28;20495;-82
2024/02/11 03:23:44;;;;;;;9.13;8.23;;;9.60;99.90;;;;;;5059261;28;20463;-82
2024/02/11 03:26:11;;;;;;;9.30;8.30;;;9.60;99.90;;;;;;5057694;28;20849;-81
2024/02/11 03:28:38;;;;;;;8.53;7.70;;;9.60;99.90;;;;;;5059132;28;20458;-82
2024/02/11 03:31:07;;;;;;;8.60;7.80;;;9.70;99.90;;;;;;5060213;28;20503;-82
2024/02/11 03:33:34;;;;;;;10.23;8.40;;;9.70;99.90;;;;;;5059899;28;20486;-83
2024/02/11 03:36:02;;;;;;;9.00;7.97;;;9.80;99.90;;;;;;5059253;28;20551;-82
2024/02/11 03:38:29;;;;;;;8.63;7.70;;;9.80;99.90;;;;;;5060654;28;20463;-82
2024/02/11 03:40:56;;;;;;;7.80;7.00;;;9.80;99.90;;;;;;5059477;28;20490;-83
2024/02/11 03:43:23;;;;;;;10.00;8.30;;;9.90;99.90;;;;;;5054932;28;20490;-80
2024/02/11 03:45:51;;;;;;;11.50;8.40;;;9.90;99.90;;;;;;5059530;28;20532;-81
2024/02/11 03:48:19;;;;;;;11.67;7.70;;;10.00;99.90;;;;;;5060073;28;20543;-81
2024/02/11 03:50:46;;;;;;;8.00;7.20;;;10.00;99.90;;;;;;5060485;28;20480;-85
2024/02/11 03:53:14;;;;;;;7.37;6.67;;;10.10;99.90;;;;;;5059007;28;20447;-82
2024/02/11 03:55:41;;;;;;;8.50;7.70;;;10.10;99.90;;;;;;5058910;28;20465;-83
2024/02/11 03:58:08;;;;;;;11.70;8.67;;;10.10;99.90;;;;;;5060350;28;20455;-83
2024/02/11 04:00:35;;;;;;;10.70;7.30;;;10.10;99.90;;;;;;5059427;28;20485;-82
2024/02/11 04:03:02;;;;;;;7.90;7.10;;;10.10;99.90;;;;;;5058697;28;20538;-81
2024/02/11 04:05:32;;;;;;;8.13;6.97;;;10.10;99.90;;;;;;5058988;28;20948;-84
2024/02/11 04:08:01;;;;;;;9.53;8.33;;;10.20;99.90;;;;;;5058373;28;20594;-82
2024/02/11 04:10:35;;;;;;;7.07;6.37;;;10.20;99.90;;;;;;5058475;28;20482;-81
2024/02/11 04:13:03;;;;;;;8.23;6.97;;;10.20;99.90;;;;;;5059157;28;20462;-81
2024/02/11 04:15:30;;;;;;;7.60;6.90;;;10.20;99.90;;;;;;5058404;28;20518;-82
2024/02/11 04:18:07;;;;;;;8.20;6.40;;;10.20;99.90;;;;;;5066883;28;20448;-81
2024/02/11 04:20:35;;;;;;;7.63;6.40;;;10.20;99.90;;;;;;5071458;28;20514;-81
2024/02/11 04:23:03;;;;;;;8.73;6.00;;;10.20;99.90;;;;;;5071492;28;20527;-79
2024/02/11 04:25:33;;;;;;;7.50;5.57;;;10.20;99.90;;;;;;5058573;28;20456;-82
2024/02/11 04:28:00;;;;;;;8.00;6.77;;;10.20;99.90;;;;;;5055409;28;20491;-81
2024/02/11 04:30:29;;;;;;;6.23;5.47;;;10.20;99.90;;;;;;5055930;28;20889;-81
2024/02/11 04:32:59;;;;;;;7.40;6.10;;;10.30;99.90;;;;;;5056188;28;20460;-82
2024/02/11 04:35:25;;;;;;;8.03;6.80;;;10.30;99.90;;;;;;5056574;28;20542;-81
2024/02/11 04:37:54;;;;;;;7.90;5.83;;;10.30;99.90;;;;;;5056792;28;20542;-81
2024/02/11 04:40:21;;;;;;;7.20;6.50;;;10.30;99.90;;;;;;5057121;28;20487;-82
2024/02/11 04:42:52;;;;;;;7.23;6.20;;;10.30;99.90;;;;;;5058644;28;20531;-82
2024/02/11 04:45:20;;;;;;;8.53;5.90;;;10.30;99.90;;;;;;5058351;28;20491;-82
2024/02/11 04:47:48;;;;;;;6.90;6.20;;;10.30;99.90;;;;;;5054657;28;20552;-82
2024/02/11 04:50:16;;;;;;;6.67;4.83;;;10.30;99.90;;;;;;5059537;28;20570;-82
2024/02/11 04:52:48;;;;;;;8.10;5.53;;;10.30;99.90;;;;;;5059084;28;20457;-81
2024/02/11 04:55:18;;;;;;;7.90;6.03;;;10.30;99.90;;;;;;5057867;28;20541;-82
2024/02/11 04:57:45;;;;;;;8.67;6.30;;;10.30;99.90;;;;;;5058581;28;20455;-83
2024/02/11 05:00:24;;;;;;;6.00;4.90;;;10.30;99.90;;;;;;5059543;28;20478;-81
2024/02/11 05:02:51;;;;;;;7.47;6.00;;;10.30;99.90;;;;;;5059073;28;20931;-80
2024/02/11 05:05:19;;;;;;;5.37;4.83;;;10.30;99.90;;;;;;5053669;28;20462;-82
2024/02/11 05:07:47;;;;;;;7.20;5.20;;;10.30;99.90;;;;;;5058655;28;20500;-82
2024/02/11 05:10:16;;;;;;;6.97;6.33;;;10.30;99.90;;;;;;5058083;28;20501;-82
2024/02/11 05:12:44;;;;;;;6.87;5.10;;;10.30;99.90;;;;;;5057515;28;20455;-81
2024/02/11 05:15:11;;;;;;;5.73;5.07;;;10.30;99.90;;;;;;5057753;28;20827;-81
2024/02/11 05:17:39;;;;;;;5.70;4.77;;;10.30;99.90;;;;;;5057390;28;20482;-81
2024/02/11 05:20:12;;;;;;;5.03;4.53;;;10.30;99.90;;;;;;5059169;28;20549;-82
2024/02/11 05:22:44;;;;;;;5.80;5.20;;;10.20;99.90;;;;;;5051411;28;20455;-81
2024/02/11 05:25:19;;;;;;;5.43;4.73;;;10.20;99.90;;;;;;5056205;28;20515;-82
2024/02/11 05:27:53;;;;;;;5.23;4.57;;;10.20;99.90;;;;;;5056772;28;20932;-81
2024/02/11 05:30:20;;;;;;;8.93;5.00;;;10.20;99.90;;;;;;5057017;28;21226;-81
2024/02/11 05:32:48;;;;;;;6.73;4.00;;;10.30;99.90;;;;;;5056698;28;20459;-83
2024/02/11 05:35:17;;;;;;;4.87;4.37;;;10.30;99.90;;;;;;5055261;28;20454;-80
2024/02/11 05:37:45;;;;;;;5.33;3.73;;;10.20;99.90;;;;;;5054768;28;20486;-81
2024/02/11 05:40:12;;;;;;;5.37;4.27;;;10.20;99.90;;;;;;5058572;28;20496;-82
2024/02/11 05:42:40;;;;;;;5.43;4.00;;;10.20;99.90;;;;;;5060676;28;20444;-82
2024/02/11 05:45:09;;;;;;;4.87;4.37;;;10.30;99.90;;;;;;5053237;28;20875;-81
2024/02/11 05:47:36;;;;;;;4.53;4.13;;;10.30;99.90;;;;;;5060319;28;20556;-81
2024/02/11 05:50:06;;;;;;;3.80;3.50;;;10.30;99.90;;;;;;5060357;28;20467;-82
2024/02/11 05:52:33;;;;;;;6.67;5.00;;;10.30;99.90;;;;;;5061822;28;20466;-82
2024/02/11 05:55:00;;;;;;;7.53;3.87;;;10.30;99.90;;;;;;5059437;28;20482;-82
2024/02/11 05:57:28;;;;;;;5.03;4.13;;;10.40;99.90;;;;;;5060651;28;20462;-83
2024/02/11 05:59:55;;;;;;;5.10;3.93;;;10.50;99.90;;;;;;5053585;28;21085;-83
2024/02/11 06:02:23;;;;;;;5.90;4.20;;;10.50;99.90;;;;;;5060920;28;20546;-82
2024/02/11 06:04:52;;;;;;;4.33;3.93;;;10.60;99.90;;;;;;5060601;28;20459;-80
2024/02/11 06:07:19;;;;;;;6.50;3.73;;;10.60;99.90;;;;;;5060903;28;20491;-80
2024/02/11 06:09:46;;;;;;;4.80;4.27;;;10.60;99.90;;;;;;5059814;28;20468;-80
2024/02/11 06:12:12;;;;;;;7.33;5.43;;;10.70;99.90;;;;;;5054081;28;20554;-81
2024/02/11 06:14:39;;;;;;;5.10;3.37;;;10.70;99.90;;;;;;5060325;28;20447;-81
2024/02/11 06:17:06;;;;;;;5.20;3.97;;;10.60;99.90;;;;;;5051881;28;20538;-81
2024/02/11 06:19:39;;;;;;;5.50;4.00;;;10.70;99.90;;;;;;5060672;28;20557;-82
2024/02/11 06:22:05;;;;;;;4.43;3.93;;;10.70;99.90;;;;;;5059692;28;21024;-82
2024/02/11 06:24:32;;;;;;;5.43;4.50;;;10.80;99.90;;;;;;5059732;28;20487;-82
2024/02/11 06:26:59;;;;;;;5.80;4.30;;;10.90;99.90;;;;;;5058342;28;20494;-82
2024/02/11 06:29:27;;;;;;;4.37;3.57;;;10.90;99.90;;;;;;5058032;28;20457;-83
2024/02/11 06:31:54;;;;;;;4.53;4.00;;;10.90;99.90;;;;;;5060011;28;20467;-81
2024/02/11 06:34:22;;;;;;;5.70;3.47;;;10.90;99.90;;;;;;5058955;28;20463;-82
2024/02/11 06:36:52;;;;;;;4.50;3.40;;;10.90;99.90;;;;;;5058794;28;20472;-83
2024/02/11 06:39:21;;;;;;;4.43;3.53;;;10.90;99.90;;;;;;5058946;28;20468;-81
2024/02/11 06:41:48;;;;;;;3.60;3.30;;;10.90;99.90;;;;;;5059910;28;20453;-81
2024/02/11 06:44:16;;;;;;;8.87;3.20;;;10.90;99.90;;;;;;5035676;28;20902;-82
2024/02/11 06:46:43;;;;;;;3.50;3.03;;;11.00;99.90;;;;;;5059849;28;20453;-83
2024/02/11 06:49:10;;;;;;;10.43;7.10;;;11.00;99.90;;;;;;5067393;28;20463;-81
2024/02/11 06:51:36;;;;;;;3.27;2.10;;;11.00;99.90;;;;;;5068833;28;20712;-81
2024/02/11 06:54:06;;;;;;;2.10;1.30;;;10.80;99.90;;;;;;5064498;28;20528;-82
2024/02/11 06:56:34;;;;;;;1.80;1.40;;;10.80;99.90;;;;;;5063076;28;20959;-82
2024/02/11 06:59:03;;;;;;;1.63;1.10;;;10.50;99.90;;;;;;5067626;28;20468;-83
2024/02/11 07:01:31;;;;;;;1.90;1.20;;;10.30;99.90;;;;;;5066570;28;20539;-81
2024/02/11 07:03:57;;;;;;;5.23;1.27;;;10.20;99.90;;;;;;5058247;28;20451;-83
2024/02/11 07:06:24;;;;;;;1.50;1.20;;;10.10;99.90;;;;;;5049523;28;20519;-82
2024/02/11 07:08:51;;;;;;;1.90;1.00;;;10.10;99.90;;;;;;5068355;28;20522;-82
2024/02/11 07:11:19;;;;;;;2.03;1.60;;;10.00;99.90;;;;;;5069457;28;20478;-83
2024/02/11 07:13:48;;;;;;;4.63;1.70;;;9.70;99.90;;;;;;5069461;28;20509;-81
2024/02/11 07:16:17;;;;;;;3.43;2.17;;;9.60;99.90;;;;;;5067750;28;20535;-82
2024/02/11 07:18:45;;;;;;;2.60;2.17;;;9.50;99.90;;;;;;5063497;28;21023;-82
2024/02/11 07:21:13;;;;;;;3.07;2.60;;;9.50;99.90;;;;;;5058770;28;20531;-83
2024/02/11 07:23:41;;;;;;;6.60;3.00;;;9.50;99.90;;;;;;5056964;28;20443;-82
2024/02/11 07:26:10;;;;;;;4.80;2.73;;;9.40;99.90;;;;;;5060142;28;20963;-82
2024/02/11 07:28:39;;;;;;;5.03;3.03;;;9.40;99.90;;;;;;5061898;28;20486;-81
2024/02/11 07:31:06;;;;;;;8.97;4.30;;;9.40;99.90;;;;;;5062023;28;20531;-82
2024/02/11 07:33:33;;;;;;;7.40;4.50;;;9.40;99.90;;;;;;5062935;28;20486;-82
2024/02/11 07:36:00;;;;;;;13.37;5.03;;;9.50;99.90;;;;;;5061393;28;20594;-81
2024/02/11 07:38:26;;;;;;;5.97;4.53;;;9.50;99.90;;;;;;5062118;28;20451;-82
2024/02/11 07:40:54;;;;;;;7.70;5.57;;;9.50;99.90;;;;;;5062924;28;20474;-84
2024/02/11 07:43:25;;;;;;;8.20;4.40;;;9.50;99.90;;;;;;5066377;28;20451;-83
2024/02/11 07:45:57;;;;;;;5.37;4.77;;;9.40;99.90;;;;;;5061369;28;20886;-82
2024/02/11 07:48:25;;;;;;;7.07;3.03;;;9.50;99.90;;;;;;5065668;28;21041;-81
2024/02/11 07:50:51;;;;;;;7.50;3.90;;;9.60;99.90;;;;;;5065208;28;20464;-83
2024/02/11 07:53:19;;;;;;;6.40;3.30;;;9.50;99.90;;;;;;5061569;28;20462;-83
2024/02/11 07:55:46;;;;;;;5.60;3.00;;;9.60;99.90;;;;;;5055802;28;20464;-83
2024/02/11 07:58:13;;;;;;;5.30;3.00;;;9.60;99.90;;;;;;5068376;28;20448;-83
2024/02/11 08:00:40;;;;;;;6.97;2.90;;;9.50;99.90;;;;;;5076403;28;20455;-82
2024/02/11 08:03:09;;;;;;;10.80;3.43;;;9.60;99.90;;;;;;5078298;28;20462;-82
2024/02/11 08:05:36;;;;;;;5.00;2.37;;;9.50;99.90;;;;;;5061703;28;20535;-82
2024/02/11 08:08:04;;;;;;;6.47;2.87;;;9.50;99.90;;;;;;5060649;28;20511;-81
2024/02/11 08:10:32;;;;;;;5.77;2.37;;;9.50;99.90;;;;;;5066573;28;20475;-83
2024/02/11 08:12:59;;;;;;;5.43;2.87;;;9.50;99.90;;;;;;5058702;28;20519;-82
2024/02/11 08:15:26;;;;;;;7.60;2.70;;;9.50;99.90;;;;;;5066889;28;20942;-82
2024/02/11 08:17:59;;;;;;;8.87;2.80;;;9.50;99.90;;;;;;5070510;28;20456;-82
2024/02/11 08:20:29;;;;;;;6.83;2.70;;;9.50;99.90;;;;;;5069826;28;20490;-82
2024/02/11 08:22:56;;;;;;;11.60;3.20;;;9.40;99.90;;;;;;5068171;28;20465;-83
2024/02/11 08:25:24;;;;;;;5.77;2.20;;;9.50;99.90;;;;;;5067647;28;20463;-82
2024/02/11 08:27:51;;;;;;;8.70;2.30;;;9.40;99.90;;;;;;5058542;28;20482;-81
2024/02/11 08:30:22;;;;;;;13.10;2.80;;;9.50;99.90;;;;;;5061963;28;20558;-81
2024/02/11 08:32:50;;;;;;;9.70;2.60;;;9.50;99.90;;;;;;5059254;28;20453;-82
2024/02/11 08:35:18;;;;;;;7.10;2.67;;;9.40;99.90;;;;;;5068855;28;20490;-81
2024/02/11 08:37:46;;;;;;;8.03;2.60;;;9.50;99.90;;;;;;5068985;28;20463;-81
2024/02/11 08:40:14;;;;;;;6.30;3.00;;;9.50;99.90;;;;;;5060217;28;20479;-81
2024/02/11 08:42:42;;;;;;;6.57;2.90;;;9.40;99.90;;;;;;5051044;28;20478;-81
2024/02/11 08:45:09;;;;;;;8.47;4.10;;;9.40;99.90;;;;;;5060576;28;20467;-81
2024/02/11 08:47:37;;;;;;;10.33;3.00;;;9.40;99.90;;;;;;5060671;28;20911;-82
2024/02/11 08:50:05;;;;;;;6.70;3.40;;;9.40;99.90;;;;;;5064143;28;20481;-82
2024/02/11 08:52:33;;;;;;;12.20;3.80;;;9.40;99.90;;;;;;5048509;28;20486;-81
2024/02/11 08:55:01;;;;;;;6.33;3.20;;;9.40;99.90;;;;;;5055933;28;20491;-81
2024/02/11 08:57:28;;;;;;;6.30;3.17;;;9.40;99.90;;;;;;5055964;28;20451;-82
2024/02/11 08:59:56;;;;;;;5.70;2.37;;;9.40;99.90;;;;;;5053834;28;20523;-85
2024/02/11 09:02:25;;;;;;;10.83;3.27;;;9.40;99.90;;;;;;5064503;28;20451;-82
2024/02/11 09:04:55;;;;;;;8.20;3.00;;;9.30;99.90;;;;;;5048562;28;20462;-82
2024/02/11 09:07:23;;;;;;;5.20;3.40;;;9.30;99.90;;;;;;5045713;28;20451;-82
2024/02/11 09:09:51;;;;;;;9.17;2.77;;;9.40;99.90;;;;;;5065444;28;20517;-83
2024/02/11 09:12:24;;;;;;;4.47;3.20;;;9.50;99.90;;;;;;5059434;28;20459;-82
2024/02/11 09:14:54;;;;;;;6.90;4.00;;;9.50;99.90;;;;;;5063617;28;20481;-80
2024/02/11 09:17:30;;;;;;;7.67;3.17;;;9.50;99.90;;;;;;5059338;28;20519;-81
2024/02/11 09:19:58;;;;;;;7.80;3.20;;;9.50;99.90;;;;;;5066841;28;20501;-81
2024/02/11 09:22:26;;;;;;;6.17;2.87;;;9.40;99.90;;;;;;5061075;28;20460;-80
2024/02/11 09:24:54;;;;;;;9.10;5.17;;;9.50;99.90;;;;;;5066153;28;20447;-81
2024/02/11 09:27:22;;;;;;;8.67;4.10;;;9.60;99.90;;;;;;5062275;28;20456;-84
2024/02/11 09:29:49;;;;;;;9.73;3.70;;;9.60;99.90;;;;;;5066473;28;20911;-82
2024/02/11 09:32:16;;;;;;;6.10;3.67;;;9.70;99.90;;;;;;5066449;28;20465;-82
2024/02/11 09:34:43;;;;;;;12.33;3.93;;;9.70;99.90;;;;;;5059105;28;20454;-82
2024/02/11 09:37:10;;;;;;;11.13;3.17;;;9.80;99.90;;;;;;5046271;28;20449;-83
2024/02/11 09:39:38;;;;;;;6.73;4.03;;;9.80;99.90;;;;;;5062844;28;20489;-82
2024/02/11 09:42:05;;;;;;;8.47;4.20;;;9.80;99.90;;;;;;5068957;28;20456;-82
2024/02/11 09:44:36;;;;;;;8.03;3.90;;;9.70;99.90;;;;;;5068632;28;20452;-83
2024/02/11 09:47:05;;;;;;;8.87;4.10;;;9.70;99.90;;;;;;5067951;28;20915;-82
2024/02/11 09:49:35;;;;;;;4.93;3.30;;;9.60;99.90;;;;;;5061095;28;20490;-83
2024/02/11 09:52:04;;;;;;;6.13;4.00;;;9.60;99.90;;;;;;5067358;28;20459;-81
2024/02/11 09:54:33;;;;;;;7.33;3.77;;;9.60;99.90;;;;;;5066577;28;20530;-82
2024/02/11 09:57:00;;;;;;;6.70;3.50;;;9.70;99.90;;;;;;5066400;28;20459;-83
2024/02/11 09:59:27;;;;;;;6.00;3.73;;;9.80;99.90;;;;;;5065168;28;21015;-81
2024/02/11 10:01:57;;;;;;;7.40;4.77;;;9.80;99.90;;;;;;5066169;28;20463;-81
2024/02/11 10:04:30;;;;;;;5.07;3.40;;;9.60;99.90;;;;;;5069666;28;20442;-82
2024/02/11 10:06:59;;;;;;;9.33;4.30;;;9.80;99.90;;;;;;5062289;28;20463;-81
2024/02/11 10:09:26;;;;;;;8.23;4.37;;;9.80;99.90;;;;;;5070261;28;20507;-81
2024/02/11 10:11:54;;;;;;;5.30;4.20;;;9.80;99.90;;;;;;5068770;28;20452;-82
2024/02/11 10:14:25;;;;;;;8.40;3.40;;;9.80;99.90;;;;;;5069968;28;20531;-82
2024/02/11 10:16:56;;;;;;;8.43;4.30;;;9.70;99.90;;;;;;5067434;28;20433;-82
2024/02/11 10:19:23;;;;;;;6.57;4.33;;;9.70;99.90;;;;;;5069684;28;20466;-81
2024/02/11 10:21:51;;;;;;;9.10;4.90;;;9.80;99.90;;;;;;5068457;28;20481;-82
2024/02/11 10:24:18;;;;;;;6.50;4.00;;;9.90;99.90;;;;;;5068845;28;20440;-84
2024/02/11 10:26:47;;;;;;;6.73;3.90;;;10.00;99.90;;;;;;5071143;28;20435;-81
2024/02/11 10:29:14;;;;;;;7.87;4.20;;;10.00;99.90;;;;;;5069578;28;20467;-82
2024/02/11 10:31:42;;;;;;;5.67;3.27;;;10.10;99.90;;;;;;5056942;28;20493;-82
2024/02/11 10:34:13;;;;;;;4.10;3.70;;;10.10;99.90;;;;;;5069776;28;20435;-81
2024/02/11 10:36:40;;;;;;;5.80;4.33;;;10.20;99.90;;;;;;5070748;28;20475;-81
2024/02/11 10:39:07;;;;;;;7.87;4.47;;;10.10;99.90;;;;;;5054890;28;20452;-82
2024/02/11 10:41:41;;;;;;;8.03;5.10;;;10.10;99.90;;;;;;5069753;28;20490;-82
2024/02/11 10:44:14;;;;;;;5.93;3.60;;;10.20;99.90;;;;;;5073760;28;20475;-82
2024/02/11 10:46:57;;;;;;;7.10;3.83;;;10.30;99.90;;;;;;5073267;28;20452;-83
2024/02/11 10:49:44;;;;;;;6.60;3.30;;;10.40;99.90;;;;;;5067138;28;20555;-81
2024/02/11 10:52:20;;;;;;;7.10;4.30;;;10.50;99.90;;;;;;5061916;28;20459;-83
2024/02/11 10:55:11;;;;;;;10.70;4.47;;;10.50;99.90;;;;;;5058723;28;20464;-83
2024/02/11 11:00:56;;;;;;;6.00;3.30;;;10.70;99.90;;;;;;5060071;28;20480;-83
2024/02/11 11:03:39;;;;;;;11.50;3.90;;;10.80;99.90;;;;;;5029578;28;20480;-83
2024/02/11 11:09:23;;;;;;;9.53;4.70;;;11.10;99.90;;;;;;5055427;28;20536;-84
2024/02/11 11:11:51;;;;;;;7.13;3.63;;;11.30;99.90;;;;;;5067965;28;20457;-82
2024/02/11 11:14:22;;;;;;;6.27;4.30;;;11.40;99.90;;;;;;5061436;28;20485;-82
2024/02/11 11:17:08;;;;;;;6.57;3.43;;;11.50;99.90;;;;;;5063441;28;20532;-83
2024/02/11 11:19:39;;;;;;;9.87;3.83;;;11.30;99.90;;;;;;5064055;28;20452;-83
2024/02/11 11:22:10;;;;;;;10.77;4.40;;;11.20;99.90;;;;;;5063129;28;20461;-82
2024/02/11 11:24:45;;;;;;;8.27;3.37;;;11.30;99.90;;;;;;5061148;28;20456;-84
2024/02/11 11:27:16;;;;;;;8.80;4.43;;;11.30;99.90;;;;;;5043380;28;20456;-84
2024/02/11 11:29:52;;;;;;;5.40;3.30;;;11.40;99.90;;;;;;5064340;28;20506;-83
2024/02/11 11:32:23;;;;;;;5.43;3.40;;;11.60;99.90;;;;;;5056116;28;20467;-83
2024/02/11 11:35:07;;;;;;;14.20;4.17;;;11.80;99.90;;;;;;5066043;28;20449;-83
2024/02/11 11:38:11;;;;;;;8.60;3.37;;;12.00;99.90;;;;;;5072049;28;20451;-83
2024/02/11 11:40:59;;;;;;;10.20;5.47;;;12.20;99.90;;;;;;5044430;28;20478;-81
2024/02/11 11:43:37;;;;;;;6.27;2.87;;;12.10;99.90;;;;;;5061838;28;20452;-81
2024/02/11 11:46:05;;;;;;;3.87;2.63;;;12.30;99.90;;;;;;5069780;28;20456;-81
2024/02/11 11:48:40;;;;;;;6.87;2.50;;;12.30;99.90;;;;;;5064661;28;20479;-81
2024/02/11 11:51:16;;;;;;;4.77;3.10;;;12.40;99.90;;;;;;5054542;28;20530;-82
2024/02/11 11:53:54;;;;;;;8.33;3.20;;;12.50;99.90;;;;;;5069532;28;20454;-81
2024/02/11 11:56:23;;;;;;;8.00;3.37;;;12.60;99.90;;;;;;5044615;28;20893;-85
2024/02/11 11:58:51;;;;;;;6.93;3.40;;;12.30;99.90;;;;;;5064971;28;20452;-80
2024/02/11 12:01:19;;;;;;;8.40;2.63;;;12.40;99.90;;;;;;5065687;28;20476;-81
2024/02/11 12:03:48;;;;;;;5.70;2.10;;;12.20;99.90;;;;;;5059816;28;20496;-81
2024/02/11 12:06:15;;;;;;;7.43;2.77;;;12.00;99.90;;;;;;5062371;28;20460;-82
2024/02/11 12:08:42;;;;;;;6.70;2.67;;;11.80;99.90;;;;;;5061509;28;20503;-80
2024/02/11 12:11:11;;;;;;;4.90;2.17;;;11.70;99.90;;;;;;5066101;28;20474;-83
2024/02/11 12:13:41;;;;;;;3.07;2.20;;;11.80;99.90;;;;;;5063343;28;20447;-81
2024/02/11 12:16:15;;;;;;;7.17;2.73;;;11.60;99.90;;;;;;5061212;28;20522;-82
2024/02/11 12:18:43;;;;;;;7.30;3.03;;;11.60;99.90;;;;;;5069692;28;20444;-82
2024/02/11 12:21:10;;;;;;;5.93;2.20;;;11.80;99.90;;;;;;5064764;28;20467;-82
2024/02/11 12:24:17;;;;;;;4.40;2.50;;;11.90;99.90;;;;;;5060987;28;20504;-85
2024/02/11 12:26:44;;;;;;;6.23;2.30;;;12.20;99.90;;;;;;5047386;28;20452;-81
2024/02/11 12:29:22;;;;;;;3.60;1.90;;;12.30;99.90;;;;;;5057216;28;20477;-82
2024/02/11 12:31:52;;;;;;;6.47;3.00;;;12.50;99.90;;;;;;5067587;28;20443;-83
2024/02/11 12:34:21;;;;;;;4.33;2.43;;;12.50;99.90;;;;;;5056864;28;20556;-82
2024/02/11 12:36:48;;;;;;;3.73;2.17;;;12.30;99.90;;;;;;5062804;28;20472;-82
2024/02/11 12:39:15;;;;;;;8.80;2.60;;;12.20;99.90;;;;;;5067420;28;20438;-80
2024/02/11 12:41:42;;;;;;;4.70;2.60;;;12.30;99.90;;;;;;5064485;28;20469;-84
2024/02/11 12:44:10;;;;;;;6.43;2.43;;;12.10;99.90;;;;;;5067544;28;20445;-82
2024/02/11 12:46:38;;;;;;;4.77;2.40;;;12.20;99.90;;;;;;5057161;28;20445;-83
2024/02/11 12:49:05;;;;;;;14.23;2.77;;;12.20;99.90;;;;;;5064840;28;20508;-82
2024/02/11 12:51:32;;;;;;;4.07;2.57;;;12.30;99.90;;;;;;5068762;28;20488;-82
2024/02/11 12:53:59;;;;;;;6.77;2.50;;;12.20;99.90;;;;;;5063999;28;20453;-83
2024/02/11 12:56:29;;;;;;;6.43;2.90;;;12.00;99.90;;;;;;5059423;28;20468;-83
2024/02/11 12:58:56;;;;;;;3.30;2.10;;;12.10;99.90;;;;;;5061770;28;20953;-82
2024/02/11 13:01:25;;;;;;;6.70;3.00;;;12.10;99.90;;;;;;5056137;28;20506;-83
2024/02/11 13:03:54;;;;;;;5.80;2.93;;;12.10;99.90;;;;;;5060173;28;20489;-82
2024/02/11 13:06:22;;;;;;;6.97;3.30;;;12.00;99.90;;;;;;5064362;28;20489;-82